createdAt,value
2022-12-09T00:01:11.785Z,94877.22
2022-12-09T00:03:39.187Z,94885.78
2022-12-09T00:06:10.898Z,94883.41
2022-12-09T00:08:37.899Z,94896.59
2022-12-09T00:11:05.705Z,94876.13
2022-12-09T00:13:33.085Z,94888.22
2022-12-09T00:16:00.027Z,94895.91
2022-12-09T00:18:26.918Z,94876.56
2022-12-09T00:20:53.909Z,94895.75
2022-12-09T00:23:20.525Z,94889.44
2022-12-09T00:25:47.489Z,94891.84
2022-12-09T00:28:14.319Z,94904.09
2022-12-09T00:30:41.173Z,94882.84
2022-12-09T00:33:08.134Z,94900.13
2022-12-09T00:35:34.846Z,94895.59
2022-12-09T00:38:01.910Z,94898.34
2022-12-09T00:40:28.651Z,94910.34
2022-12-09T00:42:55.714Z,94897.25
2022-12-09T00:45:22.527Z,94903.66
2022-12-09T00:47:49.332Z,94906.25
2022-12-09T00:50:16.468Z,94895.28
2022-12-09T00:52:43.315Z,94899.56
2022-12-09T00:55:10.200Z,94888.66
2022-12-09T00:57:37.100Z,94885.06
2022-12-09T01:00:05.335Z,94893.19
2022-12-09T01:02:32.987Z,94896.56
2022-12-09T01:05:00.060Z,94891.25
2022-12-09T01:07:27.030Z,94865.81
2022-12-09T01:09:53.657Z,94871.16
2022-12-09T01:12:20.606Z,94883.09
2022-12-09T01:14:47.309Z,94897.06
2022-12-09T01:17:14.354Z,94887.13
2022-12-09T01:19:41.368Z,94883.22
2022-12-09T01:22:08.391Z,94861.56
2022-12-09T01:24:35.633Z,94887.19
2022-12-09T01:27:02.454Z,94894.69
2022-12-09T01:29:29.383Z,94884.94
2022-12-09T01:31:56.440Z,94899.94
2022-12-09T01:34:23.206Z,94898.28
2022-12-09T01:36:50.120Z,94898.69
2022-12-09T01:39:16.922Z,94895.31
2022-12-09T01:41:44.156Z,94858.28
2022-12-09T01:44:13.111Z,94880.09
2022-12-09T01:46:40.436Z,94876.31
2022-12-09T01:49:09.501Z,94889.94
2022-12-09T01:51:38.180Z,94876.09
2022-12-09T01:54:05.150Z,94874.56
2022-12-09T01:56:36.161Z,94877.69
2022-12-09T01:59:09.016Z,94894.88
2022-12-09T02:01:36.801Z,94885.63
2022-12-09T02:04:04.346Z,94867.53
2022-12-09T02:06:31.666Z,94871.47
2022-12-09T02:08:59.648Z,94835.88
2022-12-09T02:11:35.809Z,94869.47
2022-12-09T02:14:26.876Z,94847.47
2022-12-09T02:17:13.937Z,94869.44
2022-12-09T02:20:15.139Z,94872.34
2022-12-09T02:23:11.099Z,94870.63
2022-12-09T02:25:48.761Z,94871.66
2022-12-09T02:28:30.906Z,94860.41
2022-12-09T02:31:35.320Z,94866.09
2022-12-09T02:34:05.516Z,94868.09
2022-12-09T02:36:45.819Z,94867.50
2022-12-09T02:39:12.852Z,94888.84
2022-12-09T02:41:45.576Z,94877.09
2022-12-09T02:44:20.726Z,94893.38
2022-12-09T02:46:48.904Z,94889.16
2022-12-09T02:49:16.413Z,94888.91
2022-12-09T02:51:45.744Z,94898.09
2022-12-09T02:54:16.556Z,94861.84
2022-12-09T02:56:55.746Z,94880.88
2022-12-09T02:59:22.693Z,94881.94
2022-12-09T03:02:06.408Z,94892.44
2022-12-09T03:04:33.244Z,94896.16
2022-12-09T03:07:44.227Z,94891.09
2022-12-09T03:10:23.006Z,94894.16
2022-12-09T03:12:55.688Z,94888.09
2022-12-09T03:15:27.120Z,94893.81
2022-12-09T03:17:56.651Z,94887.38
2022-12-09T03:20:28.909Z,94899.34
2022-12-09T03:23:00.800Z,94887.94
2022-12-09T03:25:50.826Z,94883.06
2022-12-09T03:28:23.091Z,94886.34
2022-12-09T03:30:50.433Z,94871.25
2022-12-09T03:33:21.301Z,94878.91
2022-12-09T03:35:55.997Z,94871.56
2022-12-09T03:38:25.970Z,94870.97
2022-12-09T03:41:07.710Z,94881.00
2022-12-09T03:43:40.014Z,94867.84
2022-12-09T03:46:07.126Z,94877.81
2022-12-09T03:48:34.571Z,94874.72
2022-12-09T03:51:14.357Z,94870.38
2022-12-09T03:53:46.729Z,94868.56
2022-12-09T03:56:21.780Z,94882.78
2022-12-09T03:58:52.161Z,94872.75
2022-12-09T04:01:20.091Z,94882.53
2022-12-09T04:03:53.153Z,94885.56
2022-12-09T04:06:41.717Z,94888.84
2022-12-09T04:09:12.084Z,94869.94
2022-12-09T04:11:38.771Z,94884.03
2022-12-09T04:14:09.143Z,94881.00
2022-12-09T04:16:39.439Z,94880.34
2022-12-09T04:19:06.389Z,94888.78
2022-12-09T04:21:33.143Z,94895.00
2022-12-09T04:24:00.260Z,94891.97
2022-12-09T04:26:26.991Z,94876.84
2022-12-09T04:28:53.873Z,94896.19
2022-12-09T04:31:20.734Z,94888.44
2022-12-09T04:33:48.054Z,94879.84
2022-12-09T04:36:18.721Z,94886.69
2022-12-09T04:38:46.005Z,94867.19
2022-12-09T04:41:14.554Z,94893.00
2022-12-09T04:43:41.681Z,94882.63
2022-12-09T04:46:12.793Z,94886.69
2022-12-09T04:48:39.885Z,94879.34
2022-12-09T04:51:14.903Z,94869.13
2022-12-09T04:53:42.658Z,94892.41
2022-12-09T04:56:16.557Z,94898.06
2022-12-09T04:58:45.064Z,94890.41
2022-12-09T05:01:17.184Z,94883.66
2022-12-09T05:03:49.232Z,94892.31
2022-12-09T05:06:17.161Z,94886.41
2022-12-09T05:08:45.270Z,94883.44
2022-12-09T05:11:14.867Z,94897.84
2022-12-09T05:13:43.676Z,94897.78
2022-12-09T05:16:16.379Z,94893.47
2022-12-09T05:18:45.757Z,94885.56
2022-12-09T05:21:16.522Z,94886.75
2022-12-09T05:23:43.856Z,94875.97
2022-12-09T05:26:13.838Z,94888.34
2022-12-09T05:28:41.634Z,94885.00
2022-12-09T05:31:12.226Z,94884.38
2022-12-09T05:33:39.618Z,94900.50
2022-12-09T05:36:13.755Z,94906.22
2022-12-09T05:38:41.118Z,94894.03
2022-12-09T05:41:08.311Z,94897.03
2022-12-09T05:43:36.898Z,94919.66
2022-12-09T05:46:04.939Z,94905.81
2022-12-09T05:48:32.031Z,94913.41
2022-12-09T05:51:06.649Z,94921.34
2022-12-09T05:53:34.632Z,94888.19
2022-12-09T05:56:02.337Z,94912.50
2022-12-09T05:58:30.279Z,94913.84
2022-12-09T06:01:04.291Z,94900.50
2022-12-09T06:03:31.482Z,94908.47
2022-12-09T06:05:58.751Z,94902.03
2022-12-09T06:08:26.130Z,94891.47
2022-12-09T06:10:53.110Z,94910.41
2022-12-09T06:13:19.990Z,94898.16
2022-12-09T06:15:47.191Z,94905.66
2022-12-09T06:18:15.196Z,94920.66
2022-12-09T06:20:42.471Z,94924.03
2022-12-09T06:23:09.667Z,94933.88
2022-12-09T06:25:36.887Z,94935.50
2022-12-09T06:28:04.689Z,94928.56
2022-12-09T06:30:31.963Z,94930.84
2022-12-09T06:33:00.036Z,94940.72
2022-12-09T06:35:27.695Z,94929.38
2022-12-09T06:37:54.727Z,94930.56
2022-12-09T06:40:24.848Z,94931.94
2022-12-09T06:42:52.534Z,94949.31
2022-12-09T06:45:20.101Z,94931.59
2022-12-09T06:47:47.830Z,94944.03
2022-12-09T06:50:16.241Z,94929.50
2022-12-09T06:52:43.040Z,94930.56
2022-12-09T06:55:11.296Z,94927.38
2022-12-09T06:57:38.864Z,94922.63
2022-12-09T07:00:07.121Z,94933.25
2022-12-09T07:02:36.770Z,94935.91
2022-12-09T07:05:04.605Z,94943.25
2022-12-09T07:07:31.675Z,94934.44
2022-12-09T07:09:59.558Z,94940.41
2022-12-09T07:12:26.618Z,94933.41
2022-12-09T07:14:53.630Z,94936.41
2022-12-09T07:17:21.654Z,94935.25
2022-12-09T07:19:49.117Z,94944.13
2022-12-09T07:22:15.987Z,94942.19
2022-12-09T07:24:44.587Z,94945.97
2022-12-09T07:27:19.415Z,94943.88
2022-12-09T07:29:47.300Z,94944.22
2022-12-09T07:32:14.808Z,94946.03
2022-12-09T07:34:42.122Z,94942.13
2022-12-09T07:37:09.238Z,94947.13
2022-12-09T07:39:36.313Z,94943.47
2022-12-09T07:42:03.837Z,94951.88
2022-12-09T07:44:31.099Z,94938.34
2022-12-09T07:46:58.535Z,94919.75
2022-12-09T07:49:26.620Z,94911.84
2022-12-09T07:51:53.592Z,94868.19
2022-12-09T07:54:22.008Z,94912.50
2022-12-09T07:56:49.426Z,94928.75
2022-12-09T07:59:16.495Z,94911.47
2022-12-09T08:01:44.561Z,94917.22
2022-12-09T08:04:12.240Z,94930.88
2022-12-09T08:06:40.244Z,94931.28
2022-12-09T08:09:11.298Z,94866.41
2022-12-09T08:11:38.649Z,94947.22
2022-12-09T08:14:12.181Z,94933.88
2022-12-09T08:16:40.875Z,94934.66
2022-12-09T08:19:08.992Z,94918.13
2022-12-09T08:21:36.116Z,94950.16
2022-12-09T08:24:05.923Z,94942.22
2022-12-09T08:26:34.514Z,94949.78
2022-12-09T08:29:01.927Z,94944.94
2022-12-09T08:31:29.916Z,94945.31
2022-12-09T08:33:58.003Z,94928.91
2022-12-09T08:36:28.374Z,94935.03
2022-12-09T08:38:58.075Z,94939.59
2022-12-09T08:41:36.911Z,94940.66
2022-12-09T08:44:18.693Z,94935.44
2022-12-09T08:46:48.428Z,94927.66
2022-12-09T08:49:20.285Z,94911.75
2022-12-09T08:51:52.558Z,94912.91
2022-12-09T08:54:19.899Z,94896.78
2022-12-09T08:56:48.605Z,94872.63
2022-12-09T08:59:16.907Z,94821.47
2022-12-09T09:01:45.675Z,94861.63
2022-12-09T09:04:15.323Z,94865.78
2022-12-09T09:06:45.261Z,94865.91
2022-12-09T09:09:14.280Z,94860.47
2022-12-09T09:11:43.018Z,94867.28
2022-12-09T09:14:12.500Z,94870.88
2022-12-09T09:16:42.314Z,94872.69
2022-12-09T09:19:15.836Z,94870.69
2022-12-09T09:21:43.175Z,94842.47
2022-12-09T09:24:12.143Z,94867.38
2022-12-09T09:26:41.630Z,94858.88
2022-12-09T09:29:11.829Z,94850.38
2022-12-09T09:31:39.111Z,94854.03
2022-12-09T09:34:06.455Z,94803.19
2022-12-09T09:36:33.542Z,94816.59
2022-12-09T09:39:00.397Z,94823.44
2022-12-09T09:41:48.741Z,94824.41
2022-12-09T09:44:36.105Z,94816.22
2022-12-09T09:47:14.003Z,94822.50
2022-12-09T09:49:53.881Z,94823.50
2022-12-09T09:52:23.496Z,94813.00
2022-12-09T09:54:52.001Z,94793.56
2022-12-09T09:57:40.547Z,94807.13
2022-12-09T10:00:38.843Z,94799.13
2022-12-09T10:03:36.045Z,94794.31
2022-12-09T10:06:12.852Z,94765.72
2022-12-09T10:09:11.411Z,94761.69
2022-12-09T10:11:48.184Z,94760.53
2022-12-09T10:14:27.439Z,94769.66
2022-12-09T10:17:13.747Z,94746.59
2022-12-09T10:19:46.916Z,94747.75
2022-12-09T10:22:25.653Z,94740.31
2022-12-09T10:24:59.033Z,94733.72
2022-12-09T10:27:35.767Z,94737.50
2022-12-09T10:30:13.845Z,94715.09
2022-12-09T10:32:42.205Z,94720.16
2022-12-09T10:35:28.728Z,94698.72
2022-12-09T10:38:04.932Z,94728.56
2022-12-09T10:40:36.276Z,94649.94
2022-12-09T10:43:41.970Z,94714.25
2022-12-09T10:46:22.931Z,94721.97
2022-12-09T10:48:50.532Z,94719.81
2022-12-09T10:51:17.693Z,94716.13
2022-12-09T10:54:12.726Z,94723.41
2022-12-09T10:57:06.260Z,94686.69
2022-12-09T10:59:34.685Z,94709.94
2022-12-09T11:02:06.447Z,94719.34
2022-12-09T11:04:35.083Z,94704.00
2022-12-09T11:07:06.814Z,94702.22
2022-12-09T11:09:38.657Z,94672.38
2022-12-09T11:12:10.127Z,94687.16
2022-12-09T11:14:40.567Z,94686.09
2022-12-09T11:17:21.728Z,94674.81
2022-12-09T11:20:16.146Z,94689.34
2022-12-09T11:22:45.035Z,94659.50
2022-12-09T11:25:17.536Z,94680.66
2022-12-09T11:27:50.251Z,94674.97
2022-12-09T11:30:21.928Z,94658.97
2022-12-09T11:33:13.467Z,94676.16
2022-12-09T11:35:44.062Z,94680.97
2022-12-09T11:38:31.785Z,94676.44
2022-12-09T11:41:44.406Z,94666.50
2022-12-09T11:44:35.110Z,94664.25
2022-12-09T11:47:08.232Z,94655.09
2022-12-09T11:49:45.705Z,94642.69
2022-12-09T11:52:18.530Z,94640.78
2022-12-09T11:54:53.904Z,94653.19
2022-12-09T11:57:38.881Z,94651.59
2022-12-09T12:00:24.031Z,94636.00
2022-12-09T12:03:12.122Z,94655.44
2022-12-09T12:05:44.249Z,94646.50
2022-12-09T12:08:29.873Z,94641.69
2022-12-09T12:11:13.456Z,94650.00
2022-12-09T12:13:46.172Z,94645.44
2022-12-09T12:16:32.481Z,94644.47
2022-12-09T12:19:05.634Z,94649.66
2022-12-09T12:21:41.326Z,94660.44
2022-12-09T12:24:31.291Z,94615.22
2022-12-09T12:27:17.579Z,94629.19
2022-12-09T12:29:44.210Z,94639.63
2022-12-09T12:32:29.268Z,94638.81
2022-12-09T12:35:10.726Z,94644.78
2022-12-09T12:37:59.228Z,94647.41
2022-12-09T12:40:54.882Z,94624.69
2022-12-09T12:44:05.696Z,94659.28
2022-12-09T12:46:50.507Z,94650.03
2022-12-09T12:49:26.103Z,94650.91
2022-12-09T12:51:58.932Z,94655.59
2022-12-09T12:54:44.322Z,94644.16
2022-12-09T12:57:38.683Z,94637.94
2022-12-09T13:00:28.384Z,94641.53
2022-12-09T13:03:38.906Z,94644.16
2022-12-09T13:06:12.360Z,94633.59
2022-12-09T13:08:48.776Z,94633.94
2022-12-09T13:11:56.410Z,94629.84
2022-12-09T13:14:36.773Z,94627.47
2022-12-09T13:17:07.590Z,94635.94
2022-12-09T13:19:45.781Z,94631.63
2022-12-09T13:22:41.613Z,94638.72
2022-12-09T13:25:48.710Z,94639.94
2022-12-09T13:28:25.306Z,94627.31
2022-12-09T13:30:56.768Z,94625.31
2022-12-09T13:33:47.894Z,94634.69
2022-12-09T13:36:47.250Z,94637.38
2022-12-09T13:39:39.569Z,94635.19
2022-12-09T13:42:46.707Z,94606.63
2022-12-09T13:45:44.833Z,94628.25
2022-12-09T13:48:16.631Z,94629.88
2022-12-09T13:50:59.548Z,94622.81
2022-12-09T13:53:46.071Z,94624.47
2022-12-09T13:56:16.386Z,94615.41
2022-12-09T13:58:58.097Z,94621.09
2022-12-09T14:01:48.262Z,94614.47
2022-12-09T14:04:29.183Z,94621.44
2022-12-09T14:07:41.889Z,94628.75
2022-12-09T14:10:40.481Z,94623.00
2022-12-09T14:13:25.384Z,94625.69
2022-12-09T14:16:30.276Z,94610.75
2022-12-09T14:18:57.717Z,94609.25
2022-12-09T14:21:30.634Z,94597.03
2022-12-09T14:24:20.196Z,94598.78
2022-12-09T14:27:12.476Z,94577.13
2022-12-09T14:29:57.406Z,94594.00
2022-12-09T14:32:25.650Z,94591.06
2022-12-09T14:35:15.664Z,94589.22
2022-12-09T14:38:19.962Z,94592.69
2022-12-09T14:41:15.266Z,94588.72
2022-12-09T14:43:59.656Z,94600.00
2022-12-09T14:46:49.242Z,94599.53
2022-12-09T14:49:29.557Z,94587.44
2022-12-09T14:52:01.413Z,94573.19
2022-12-09T14:54:35.098Z,94570.19
2022-12-09T14:57:07.041Z,94567.31
2022-12-09T14:59:35.647Z,94583.53
2022-12-09T15:02:09.821Z,94578.75
2022-12-09T15:04:47.549Z,94579.13
2022-12-09T15:07:23.309Z,94578.09
2022-12-09T15:09:51.313Z,94557.34
2022-12-09T15:12:20.926Z,94587.19
2022-12-09T15:14:52.929Z,94569.38
2022-12-09T15:17:27.552Z,94588.63
2022-12-09T15:20:02.315Z,94584.47
2022-12-09T15:22:31.796Z,94538.53
2022-12-09T15:24:58.897Z,94582.16
2022-12-09T15:27:26.392Z,94583.47
2022-12-09T15:29:53.567Z,94550.47
2022-12-09T15:32:29.891Z,94531.22
2022-12-09T15:35:14.652Z,94587.69
2022-12-09T15:37:41.652Z,94549.53
2022-12-09T15:40:12.835Z,94555.47
2022-12-09T15:42:56.262Z,94566.63
2022-12-09T15:45:28.849Z,94556.94
2022-12-09T15:48:02.248Z,94574.25
2022-12-09T15:50:38.374Z,94566.00
2022-12-09T15:53:10.178Z,94576.34
2022-12-09T15:55:51.214Z,94563.63
2022-12-09T15:58:23.318Z,94554.09
2022-12-09T16:00:51.869Z,94563.81
2022-12-09T16:03:21.567Z,94564.53
2022-12-09T16:06:01.169Z,94536.34
2022-12-09T16:08:40.286Z,94520.19
2022-12-09T16:11:08.025Z,94544.06
2022-12-09T16:13:35.320Z,94553.81
2022-12-09T16:16:23.970Z,94557.28
2022-12-09T16:18:50.769Z,94549.19
2022-12-09T16:21:36.789Z,94534.59
2022-12-09T16:24:11.701Z,94552.38
2022-12-09T16:26:44.689Z,94570.56
2022-12-09T16:29:28.854Z,94542.72
2022-12-09T16:32:14.280Z,94563.16
2022-12-09T16:34:40.950Z,94572.25
2022-12-09T16:37:32.944Z,94563.16
2022-12-09T16:40:00.342Z,94557.06
2022-12-09T16:42:32.444Z,94538.34
2022-12-09T16:45:23.975Z,94557.31
2022-12-09T16:47:55.191Z,94547.25
2022-12-09T16:50:26.273Z,94567.16
2022-12-09T16:52:53.345Z,94585.75
2022-12-09T16:55:26.541Z,94558.25
2022-12-09T16:57:54.131Z,94569.03
2022-12-09T17:00:21.760Z,94570.06
2022-12-09T17:03:04.774Z,94562.66
2022-12-09T17:05:31.874Z,94560.47
2022-12-09T17:07:58.810Z,94550.03
2022-12-09T17:10:25.904Z,94546.31
2022-12-09T17:12:52.621Z,94566.81
2022-12-09T17:15:20.893Z,94568.69
2022-12-09T17:17:49.100Z,94568.69
2022-12-09T17:20:16.392Z,94561.00
2022-12-09T17:22:43.115Z,94565.78
2022-12-09T17:25:10.536Z,94571.88
2022-12-09T17:27:37.812Z,94574.13
2022-12-09T17:30:05.670Z,94562.66
2022-12-09T17:32:32.789Z,94577.41
2022-12-09T17:34:59.351Z,94556.41
2022-12-09T17:37:26.194Z,94575.16
2022-12-09T17:39:56.902Z,94571.28
2022-12-09T17:42:26.767Z,94557.69
2022-12-09T17:44:53.522Z,94554.25
2022-12-09T17:47:20.224Z,94579.84
2022-12-09T17:49:46.996Z,94561.91
2022-12-09T17:52:14.490Z,94574.59
2022-12-09T17:54:41.457Z,94575.16
2022-12-09T17:57:08.199Z,94566.88
2022-12-09T17:59:35.033Z,94568.09
2022-12-09T18:02:03.640Z,94562.50
2022-12-09T18:04:31.345Z,94560.00
2022-12-09T18:06:58.030Z,94545.59
2022-12-09T18:09:24.990Z,94546.97
2022-12-09T18:11:51.962Z,94580.72
2022-12-09T18:14:19.261Z,94568.09
2022-12-09T18:16:46.658Z,94572.59
2022-12-09T18:19:16.634Z,94568.25
2022-12-09T18:21:44.331Z,94562.28
2022-12-09T18:24:11.167Z,94562.56
2022-12-09T18:26:41.561Z,94527.91
2022-12-09T18:29:10.422Z,94480.13
2022-12-09T18:31:37.295Z,94551.66
2022-12-09T18:34:04.219Z,94538.28
2022-12-09T18:36:31.103Z,94545.09
2022-12-09T18:39:00.539Z,94529.94
2022-12-09T18:41:29.710Z,94529.69
2022-12-09T18:43:58.617Z,94527.25
2022-12-09T18:46:28.284Z,94526.22
2022-12-09T18:48:58.559Z,94473.50
2022-12-09T18:51:26.472Z,94501.53
2022-12-09T18:53:53.813Z,94530.63
2022-12-09T18:56:20.563Z,94492.63
2022-12-09T18:59:06.004Z,94511.47
2022-12-09T19:01:34.338Z,94529.63
2022-12-09T19:04:03.129Z,94521.91
2022-12-09T19:06:31.500Z,94532.03
2022-12-09T19:09:00.656Z,94535.53
2022-12-09T19:11:30.423Z,94524.56
2022-12-09T19:13:57.445Z,94513.19
2022-12-09T19:16:26.084Z,94517.72
2022-12-09T19:18:56.356Z,94498.44
2022-12-09T19:21:24.944Z,94508.84
2022-12-09T19:23:52.162Z,94495.91
2022-12-09T19:26:22.468Z,94504.19
2022-12-09T19:28:52.979Z,94507.63
2022-12-09T19:31:36.169Z,94504.03
2022-12-09T19:34:07.325Z,94500.41
2022-12-09T19:36:34.481Z,94488.84
2022-12-09T19:39:03.424Z,94509.63
2022-12-09T19:41:30.093Z,94464.75
2022-12-09T19:43:58.372Z,94499.44
2022-12-09T19:46:26.708Z,94503.78
2022-12-09T19:48:54.130Z,94496.50
2022-12-09T19:51:21.868Z,94491.66
2022-12-09T19:53:49.144Z,94480.69
2022-12-09T19:56:19.560Z,94499.94
2022-12-09T19:58:48.117Z,94494.81
2022-12-09T20:01:23.496Z,94504.69
2022-12-09T20:03:52.456Z,94517.63
2022-12-09T20:06:21.450Z,94485.53
2022-12-09T20:08:48.759Z,94533.97
2022-12-09T20:11:19.354Z,94519.19
2022-12-09T20:13:46.973Z,94496.38
2022-12-09T20:16:17.171Z,94509.09
2022-12-09T20:18:44.088Z,94497.19
2022-12-09T20:21:13.416Z,94493.13
2022-12-09T20:23:42.088Z,94499.16
2022-12-09T20:26:15.393Z,94476.06
2022-12-09T20:28:44.222Z,94497.16
2022-12-09T20:31:13.868Z,94492.03
2022-12-09T20:33:41.740Z,94486.72
2022-12-09T20:36:11.347Z,94485.56
2022-12-09T20:38:38.530Z,94499.38
2022-12-09T20:41:07.093Z,94467.28
2022-12-09T20:43:39.485Z,94496.25
2022-12-09T20:46:08.066Z,94477.06
2022-12-09T20:48:36.277Z,94483.75
2022-12-09T20:51:09.448Z,94486.44
2022-12-09T20:53:36.599Z,94489.88
2022-12-09T20:56:04.305Z,94465.03
2022-12-09T20:58:31.757Z,94445.88
2022-12-09T21:01:06.247Z,94437.81
2022-12-09T21:03:32.896Z,94483.03
2022-12-09T21:05:59.695Z,94480.78
2022-12-09T21:08:31.411Z,94472.19
2022-12-09T21:11:09.158Z,94470.94
2022-12-09T21:13:38.206Z,94450.66
2022-12-09T21:16:10.785Z,94458.03
2022-12-09T21:18:38.006Z,94466.44
2022-12-09T21:21:06.377Z,94469.03
2022-12-09T21:23:35.663Z,94460.56
2022-12-09T21:26:07.663Z,94473.81
2022-12-09T21:28:36.052Z,94430.00
2022-12-09T21:31:11.034Z,94476.81
2022-12-09T21:33:38.326Z,94457.50
2022-12-09T21:36:07.522Z,94464.56
2022-12-09T21:38:35.137Z,94470.13
2022-12-09T21:41:03.927Z,94464.56
2022-12-09T21:43:32.233Z,94445.38
2022-12-09T21:46:06.281Z,94415.72
2022-12-09T21:48:33.295Z,94409.97
2022-12-09T21:51:02.028Z,94426.50
2022-12-09T21:53:29.836Z,94439.03
2022-12-09T21:56:05.605Z,94435.44
2022-12-09T21:58:33.141Z,94423.06
2022-12-09T22:01:02.106Z,94451.38
2022-12-09T22:03:29.175Z,94414.31
2022-12-09T22:05:58.915Z,94437.66
2022-12-09T22:08:25.725Z,94438.28
2022-12-09T22:10:53.124Z,94416.97
2022-12-09T22:13:20.055Z,94414.38
2022-12-09T22:15:47.775Z,94431.88
2022-12-09T22:18:16.320Z,94435.22
2022-12-09T22:23:30.605Z,94373.06
2022-12-09T22:25:57.335Z,94351.09
2022-12-09T22:28:23.997Z,94418.00
2022-12-09T22:30:51.683Z,94402.19
2022-12-09T22:33:18.512Z,94404.34
2022-12-09T22:35:59.459Z,94418.16
2022-12-09T22:38:27.536Z,94357.72
2022-12-09T22:40:55.338Z,94391.94
2022-12-09T22:43:22.129Z,94407.53
2022-12-09T22:45:51.135Z,94335.88
2022-12-09T22:48:18.796Z,94313.63
2022-12-09T22:50:45.883Z,94320.59
2022-12-09T22:53:12.878Z,94382.16
2022-12-09T22:55:46.612Z,94421.28
2022-12-09T22:58:14.364Z,94360.69
2022-12-09T23:00:41.866Z,94313.56
2022-12-09T23:03:08.766Z,94362.38
2022-12-09T23:05:37.926Z,94396.72
2022-12-09T23:08:05.842Z,94340.13
2022-12-09T23:10:33.443Z,94417.75
2022-12-09T23:13:04.071Z,94405.22
2022-12-09T23:15:30.951Z,94393.31
2022-12-09T23:17:57.568Z,94325.03
2022-12-09T23:20:25.149Z,94386.94
2022-12-09T23:22:51.762Z,94382.53
2022-12-09T23:25:20.063Z,94370.59
2022-12-09T23:27:47.791Z,94384.69
2022-12-09T23:30:15.242Z,94358.34
2022-12-09T23:32:43.114Z,94302.28
2022-12-09T23:35:10.477Z,94343.69
2022-12-09T23:37:37.494Z,94342.09
2022-12-09T23:40:04.673Z,94355.34
2022-12-09T23:42:31.847Z,94375.16
2022-12-09T23:44:58.547Z,94349.53
2022-12-09T23:47:25.233Z,94337.63
2022-12-09T23:49:51.776Z,94376.22
2022-12-09T23:52:18.666Z,94362.53
2022-12-09T23:54:45.355Z,94295.50
2022-12-09T23:57:12.188Z,94329.09
2022-12-09T23:59:40.111Z,94361.13
